Piermont, New York
Current Conditions -  °F | °C
As of 3:56 PM on Friday 24 Oct 2014 (Local Time) from KHPN Reporting Station
Broken Clouds Broken Clouds  
Wind Chill: 57°   Ceiling: 4000
Heat Index: 57°   Visibility: 10mi
Dew Point: 44°   Wind: 10mph
Humidity: 62%   Direction: 340°NNW
Pressure: 29.77"   Gusts: NA
Location:  41.04°N, 73.92°W
Report Text: KHPN 241956Z 34009KT 10SM BKN040 14/07 A2977 RMK AO2 SLP081 T01390067
Loading
Personal Weather Stations






























Interactive Weather Map
Tropical Storm Tracking
New forecast layout! Learn more

10-Day Weather Forecast

Advertisements
Track Severe Weather on mobile